Thunder radar more information blitzortung!


Radar de pluja more information rain snow radar


Visita la nostra xarxa de llocs de meteo:

Template documentation
and downloads

And another site



No particular awareness of the weather is required.    There are no Weather-warnings

Pagina Historial Weather Underground text

Diari Resum Setembre 11, 2017 Unitats:  Imperial    Mètric   Tant
« Previous Dia
SegĂźent Dia »
Diari Setmana Mensual Anual Personalitzada
  Maxima: Minima: Media:
Temperatura: 88 °F 61.3 °F 77.2 °F
Punt de rosada: 59.2 °F 43.7 °F 53.1 °F
Humitat: 81 % 31 % 45 %
Wind Speed: 12.8 mph 0 mph 5.5 mph
RĂ fegues de vent: 12.8 mph - -
Vent:- - SW
Pression baro: 29.9 in 29.7 in -
Precipitacions: 0 in    
Historical Graphs
 
 
Dades de taula per Setembre 11, 2017
Temps Temperatura Punt de rosada Pression baro Vent Wind Speed RĂ fegues de vent Humitat Rainfall Rate (Hourly)
00:00 62.2 °F 43.9 °F 29.8 in WNW 1 mph 2 mph 51 % 0 in
00:01 65.5 °F 47.5 °F 29.8 in NNE 3.5 mph 3.5 mph 52 % 0 in
00:06 65.5 °F 47.5 °F 29.8 in NNE 3.5 mph 3.5 mph 52 % 0 in
00:10 62.1 °F 43.7 °F 29.8 in Calm   2 mph 51 % 0 in
00:20 62.1 °F 44.2 °F 29.8 in WSW 1 mph 5 mph 52 % 0 in
00:30 62.1 °F 44.2 °F 29.8 in WSW 2 mph 2 mph 52 % 0 in
00:40 61.9 °F 44.1 °F 29.8 in WSW 1 mph 2 mph 52 % 0 in
00:50 62.2 °F 44.4 °F 29.8 in West 2 mph 4 mph 52 % 0 in
01:00 62.6 °F 44.8 °F 29.8 in West 2 mph 4 mph 52 % 0 in
01:10 62.6 °F 44.8 °F 29.8 in West 2 mph 3 mph 52 % 0 in
01:20 62.4 °F 45.1 °F 29.8 in West 2 mph 6 mph 53 % 0 in
01:30 62.2 °F 45.3 °F 29.8 in West 2 mph 2 mph 54 % 0 in
01:40 62.4 °F 45.5 °F 29.8 in WSW 1 mph 3 mph 54 % 0 in
01:50 62.1 °F 45.7 °F 29.8 in WSW 1 mph 2 mph 55 % 0 in
02:00 61.9 °F 45.5 °F 29.8 in WSW 1 mph 2 mph 55 % 0 in
02:10 61.3 °F 45.5 °F 29.8 in WSW 1 mph 1 mph 56 % 0 in
02:20 61.5 °F 45.7 °F 29.8 in North 2 mph 2 mph 56 % 0 in
02:30 61.9 °F 46.6 °F 29.8 in WNW 1 mph 3 mph 57 % 0 in
02:40 61.9 °F 46.9 °F 29.8 in Calm   4 mph 58 % 0 in
02:50 62.1 °F 47.1 °F 29.8 in Calm   2 mph 58 % 0 in
03:00 62.2 °F 47.3 °F 29.8 in SW 1 mph 2 mph 58 % 0 in
03:10 63.5 °F 48 °F 29.8 in SE 1 mph 2 mph 57 % 0 in
03:20 64 °F 48.6 °F 29.8 in NW 1 mph 2 mph 57 % 0 in
03:30 64 °F 48.6 °F 29.8 in North 2 mph 3 mph 57 % 0 in
03:40 64.9 °F 49.3 °F 29.8 in NNE 1 mph 2 mph 57 % 0 in
03:50 65.3 °F 49.6 °F 29.8 in WNW 2 mph 6 mph 57 % 0 in
04:00 66.6 °F 50.7 °F 29.8 in West 1 mph 3 mph 57 % 0 in
04:10 67.8 °F 51.4 °F 29.8 in West 2 mph 3 mph 56 % 0 in
04:20 68.4 °F 51.6 °F 29.8 in West 1 mph 2 mph 55 % 0 in
04:30 67.8 °F 51.1 °F 29.8 in West 2 mph 5 mph 55 % 0 in
04:40 68.5 °F 51.6 °F 29.8 in West 5 mph 5 mph 55 % 0 in
04:50 69.1 °F 52.2 °F 29.8 in West 3 mph 5 mph 55 % 0 in
05:00 69.8 °F 52.3 °F 29.8 in WSW 5 mph 6 mph 54 % 0 in
05:10 70.7 °F 53.2 °F 29.8 in WSW 3 mph 5 mph 54 % 0 in
05:20 71.8 °F 53.8 °F 29.8 in WSW 3 mph 3 mph 53 % 0 in
05:30 72.5 °F 54 °F 29.8 in SW 3 mph 6 mph 52 % 0 in
05:35 72.7 °F 54 °F 29.8 in WSW 5 mph 5 mph 52 % 0 in
10:35 72.7 °F 54 °F 29.8 in West 4.6 mph 4.6 mph 52 % 0 in
10:40 73.8 °F 54.5 °F 29.8 in WNW 3.5 mph 3.5 mph 51 % 0 in
10:45 73.8 °F 54 °F 29.8 in West 9.2 mph 9.2 mph 50 % 0 in
10:50 73.8 °F 54 °F 29.8 in South 6.9 mph 6.9 mph 50 % 0 in
10:55 75.2 °F 55.2 °F 29.8 in West 3.5 mph 3.5 mph 50 % 0 in
11:00 75.7 °F 55.8 °F 29.8 in West 4.6 mph 4.6 mph 50 % 0 in
11:05 75.7 °F 55.2 °F 29.8 in North 5.8 mph 5.8 mph 49 % 0 in
11:10 75.7 °F 55.2 °F 29.8 in West 5.8 mph 5.8 mph 49 % 0 in
11:15 76.3 °F 55.8 °F 29.8 in WSW 5.8 mph 5.8 mph 49 % 0 in
11:20 76.8 °F 56.1 °F 29.8 in WSW 4.6 mph 4.6 mph 49 % 0 in
11:25 77.5 °F 55.8 °F 29.8 in West 3.8 mph 3.8 mph 47 % 0 in
11:30 77.5 °F 55.8 °F 29.8 in WSW 4.6 mph 4.6 mph 47 % 0 in
11:35 77.7 °F 55.9 °F 29.8 in SSW 10.4 mph 10.4 mph 47 % 0 in
11:40 77.9 °F 55.6 °F 29.8 in WSW 5.8 mph 5.8 mph 46 % 0 in
11:45 78.1 °F 55.6 °F 29.8 in West 8.1 mph 8.1 mph 46 % 0 in
11:50 77.9 °F 55.6 °F 29.8 in West 10.4 mph 10.4 mph 46 % 0 in
11:55 79 °F 56.5 °F 29.8 in SSE 8.1 mph 8.1 mph 46 % 0 in
12:00 79.5 °F 56.8 °F 29.8 in WSW 8.1 mph 8.1 mph 46 % 0 in
12:05 79.5 °F 56.3 °F 29.8 in West 7.4 mph 7.4 mph 45 % 0 in
12:10 79.3 °F 56.1 °F 29.8 in SW 9.2 mph 9.2 mph 45 % 0 in
12:15 80.4 °F 57 °F 29.8 in WSW 8.7 mph 8.7 mph 45 % 0 in
12:20 80.6 °F 55.9 °F 29.8 in SSW 6.9 mph 6.9 mph 43 % 0 in
12:25 81 °F 56.5 °F 29.8 in SSW 8.1 mph 8.1 mph 43 % 0 in
12:30 80.4 °F 55.9 °F 29.8 in SW 8.1 mph 8.1 mph 43 % 0 in
12:35 80.6 °F 55.4 °F 29.8 in ESE 10.4 mph 10.4 mph 42 % 0 in
12:40 81 °F 55.8 °F 29.8 in West 10.4 mph 10.4 mph 42 % 0 in
12:45 81.3 °F 55.9 °F 29.8 in West 5.9 mph 5.9 mph 42 % 0 in
12:50 81.7 °F 56.5 °F 29.8 in NNW 9.2 mph 9.2 mph 42 % 0 in
12:51 81.7 °F 56.5 °F 29.8 in SW 12.8 mph 12.8 mph 42 % 0 in
12:56 81.7 °F 55.8 °F 29.8 in WNW 7.8 mph 7.8 mph 41 % 0 in
13:01 81.5 °F 55.6 °F 29.8 in WSW 8.1 mph 8.1 mph 41 % 0 in
13:06 81.9 °F 55.9 °F 29.8 in WNW 8.1 mph 8.1 mph 41 % 0 in
13:11 82.2 °F 56.1 °F 29.8 in WSW 8.1 mph 8.1 mph 41 % 0 in
13:16 82.2 °F 56.1 °F 29.8 in SW 9.2 mph 9.2 mph 41 % 0 in
13:21 82.9 °F 56.8 °F 29.8 in West 6.9 mph 6.9 mph 41 % 0 in
13:26 82.4 °F 55.8 °F 29.8 in WNW 10.4 mph 10.4 mph 40 % 0 in
13:31 83.1 °F 56.3 °F 29.8 in WSW 9.2 mph 9.2 mph 40 % 0 in
13:36 83.7 °F 56.8 °F 29.8 in North 5.8 mph 5.8 mph 40 % 0 in
13:41 84 °F 57 °F 29.8 in SW 8.1 mph 8.1 mph 40 % 0 in
13:46 83.8 °F 56.8 °F 29.8 in SSE 6.9 mph 6.9 mph 40 % 0 in
13:51 84.2 °F 56.7 °F 29.7 in WSW 6 mph 6 mph 39 % 0 in
13:56 84.7 °F 57 °F 29.7 in West 5.9 mph 5.9 mph 39 % 0 in
14:01 85.3 °F 56.8 °F 29.7 in SW 11.5 mph 11.5 mph 38 % 0 in
14:06 84.9 °F 56.5 °F 29.8 in WNW 8.1 mph 8.1 mph 38 % 0 in
14:11 84.9 °F 56.5 °F 29.8 in SW 6.9 mph 6.9 mph 38 % 0 in
14:16 84.7 °F 56.3 °F 29.8 in WSW 5.8 mph 5.8 mph 38 % 0 in
14:21 84.6 °F 56.1 °F 29.7 in SW 5.8 mph 5.8 mph 38 % 0 in
14:26 84.2 °F 55.8 °F 29.7 in WSW 3.5 mph 3.5 mph 38 % 0 in
14:32 83.8 °F 56.1 °F 29.7 in WSW 5.8 mph 5.8 mph 39 % 0 in
14:37 83.8 °F 56.1 °F 29.8 in SW 3.5 mph 3.5 mph 39 % 0 in
14:42 84.4 °F 55.9 °F 29.8 in West 5.8 mph 5.8 mph 38 % 0 in
14:47 84.4 °F 55.9 °F 29.8 in NE 3.5 mph 3.5 mph 38 % 0 in
14:52 84.9 °F 56.5 °F 29.8 in WSW 3.1 mph 3.1 mph 38 % 0 in
14:57 85.6 °F 57 °F 29.8 in NW 4.6 mph 4.6 mph 38 % 0 in
15:02 86.5 °F 57.2 °F 29.8 in NNE 6.2 mph 6.2 mph 37 % 0 in
15:07 86.2 °F 56.1 °F 29.8 in West 5.8 mph 5.8 mph 36 % 0 in
15:12 85.5 °F 55.6 °F 29.8 in WNW 6.9 mph 6.9 mph 36 % 0 in
15:17 85.1 °F 55 °F 29.8 in West 5.9 mph 5.9 mph 36 % 0 in
15:22 86 °F 55.2 °F 29.8 in WNW 3.5 mph 3.5 mph 35 % 0 in
15:27 88 °F 56.1 °F 29.8 in SW 4.6 mph 4.6 mph 34 % 0 in
15:32 87.8 °F 55.9 °F 29.8 in West 5.8 mph 5.8 mph 34 % 0 in
15:37 86.9 °F 54.3 °F 29.7 in WSW 8.1 mph 8.1 mph 33 % 0 in
15:42 85.8 °F 53.4 °F 29.7 in WSW 5.8 mph 5.8 mph 33 % 0 in
15:47 85.6 °F 53.2 °F 29.7 in WSW 4.6 mph 4.6 mph 33 % 0 in
15:52 85.3 °F 52.2 °F 29.8 in NNW 8.1 mph 8.1 mph 32 % 0 in
15:57 86.9 °F 53.4 °F 29.8 in WSW 8.1 mph 8.1 mph 32 % 0 in
16:02 87.1 °F 53.6 °F 29.8 in WNW 6.9 mph 6.9 mph 32 % 0 in
16:07 87.1 °F 53.6 °F 29.8 in West 6.9 mph 6.9 mph 32 % 0 in
16:12 86.5 °F 52.3 °F 29.8 in West 6.9 mph 6.9 mph 31 % 0 in
16:17 84 °F 51.1 °F 29.8 in ESE 7.8 mph 7.8 mph 32 % 0 in
16:22 84.6 °F 51.4 °F 29.8 in South 5.8 mph 5.8 mph 32 % 0 in
16:27 81.5 °F 49.6 °F 29.8 in ESE 10.4 mph 10.4 mph 33 % 0 in
16:32 80.6 °F 49.6 °F 29.8 in North 5.4 mph 5.4 mph 34 % 0 in
16:37 80.6 °F 50.4 °F 29.8 in East 6.9 mph 6.9 mph 35 % 0 in
16:42 79.9 °F 50.5 °F 29.8 in ESE 7.6 mph 7.6 mph 36 % 0 in
16:47 79.5 °F 50.2 °F 29.8 in ENE 4.6 mph 4.6 mph 36 % 0 in
16:52 81.5 °F 52 °F 29.8 in WSW 4.6 mph 4.6 mph 36 % 0 in
16:57 82.2 °F 52.5 °F 29.8 in SW 4.9 mph 4.9 mph 36 % 0 in
17:02 80.1 °F 50.7 °F 29.8 in East 8.1 mph 8.1 mph 36 % 0 in
17:07 79.7 °F 51.1 °F 29.7 in ESE 10.2 mph 10.2 mph 37 % 0 in
17:12 77.7 °F 50.2 °F 29.7 in SW 11.5 mph 11.5 mph 38 % 0 in
17:17 78.3 °F 50.5 °F 29.7 in ENE 5.9 mph 5.9 mph 38 % 0 in
17:22 78.1 °F 51.1 °F 29.7 in SSE 6.9 mph 6.9 mph 39 % 0 in
17:27 77.4 °F 50.5 °F 29.7 in ESE 9.2 mph 9.2 mph 39 % 0 in
17:32 77.7 °F 51.4 °F 29.7 in NNE 5.8 mph 5.8 mph 40 % 0 in
17:37 77.9 °F 51.6 °F 29.8 in NNW 4.3 mph 4.3 mph 40 % 0 in
17:42 79 °F 52.5 °F 29.8 in West 5.8 mph 5.8 mph 40 % 0 in
17:47 79.7 °F 53.2 °F 29.8 in WSW 7.4 mph 7.4 mph 40 % 0 in
17:52 82.2 °F 53.4 °F 29.8 in NNW 10.4 mph 10.4 mph 37 % 0 in
17:57 83.1 °F 53.4 °F 29.8 in WNW 8.5 mph 8.5 mph 36 % 0 in
18:02 83.8 °F 53.2 °F 29.8 in WSW 10.4 mph 10.4 mph 35 % 0 in
18:07 84.2 °F 52.9 °F 29.8 in West 3.8 mph 3.8 mph 34 % 0 in
18:12 81.7 °F 52.2 °F 29.8 in WSW 6.9 mph 6.9 mph 36 % 0 in
18:17 83.3 °F 52.9 °F 29.8 in ENE 2.3 mph 2.4 mph 35 % 0 in
18:22 81.9 °F 53.1 °F 29.8 in ENE 6.9 mph 6.9 mph 37 % 0 in
18:27 82.2 °F 51.1 °F 29.8 in SW 12.7 mph 12.7 mph 34 % 0 in
18:32 82.4 °F 51.3 °F 29.8 in SW 7.4 mph 7.4 mph 34 % 0 in
18:37 82.4 °F 51.3 °F 29.8 in SW 7.4 mph 7.4 mph 34 % 0 in
18:42 82.4 °F 51.3 °F 29.8 in SW 7.4 mph 7.4 mph 34 % 0 in
18:47 82.4 °F 51.3 °F 29.8 in SW 7.4 mph 7.4 mph 34 % 0 in
18:52 82.4 °F 51.3 °F 29.8 in SW 7.4 mph 7.4 mph 34 % 0 in
18:57 82.4 °F 51.3 °F 29.8 in SW 7.4 mph 7.4 mph 34 % 0 in
19:02 82.4 °F 51.3 °F 29.8 in SW 7.4 mph 7.4 mph 34 % 0 in
19:07 82.4 °F 51.3 °F 29.8 in SW 7.4 mph 7.4 mph 34 % 0 in
19:12 82.4 °F 51.3 °F 29.8 in SW 7.4 mph 7.4 mph 34 % 0 in
19:17 82.4 °F 51.3 °F 29.8 in SW 7.4 mph 7.4 mph 34 % 0 in
19:20 67.3 °F 59.2 °F 29.8 in SW 1 mph 3 mph 75 % 0 in
19:22 82.4 °F 51.3 °F 29.8 in SW 7.4 mph 7.4 mph 34 % 0 in
19:27 82.4 °F 51.3 °F 29.8 in SW 7.4 mph 7.4 mph 34 % 0 in
19:30 67.1 °F 58.8 °F 29.8 in NNE 2 mph 3 mph 75 % 0 in
19:32 82.4 °F 51.3 °F 29.8 in SW 7.4 mph 7.4 mph 34 % 0 in
19:37 82.4 °F 51.3 °F 29.8 in SW 7.4 mph 7.4 mph 34 % 0 in
19:40 67.1 °F 58.8 °F 29.8 in NE 2 mph 3 mph 75 % 0 in
19:42 82.4 °F 51.3 °F 29.8 in SW 7.4 mph 7.4 mph 34 % 0 in
19:43 82.4 °F 51.3 °F 29.8 in SW 7.4 mph 7.4 mph 34 % 0 in
19:48 82.4 °F 51.3 °F 29.8 in SW 7.4 mph 7.4 mph 34 % 0 in
19:50 66.9 °F 58.6 °F 29.8 in Calm   2 mph 75 % 0 in
19:53 82.4 °F 51.3 °F 29.8 in SW 7.4 mph 7.4 mph 34 % 0 in
19:58 82.4 °F 51.3 °F 29.8 in SW 7.4 mph 7.4 mph 34 % 0 in
20:00 66.9 °F 58.6 °F 29.8 in NNE 1 mph 1 mph 75 % 0 in
20:03 82.4 °F 51.3 °F 29.8 in SW 7.4 mph 7.4 mph 34 % 0 in
20:08 82.4 °F 51.3 °F 29.8 in SW 7.4 mph 7.4 mph 34 % 0 in
20:10 66.7 °F 58.8 °F 29.8 in NNE 1 mph 2 mph 76 % 0 in
20:13 82.4 °F 51.3 °F 29.8 in SW 7.4 mph 7.4 mph 34 % 0 in
20:18 82.4 °F 51.3 °F 29.8 in SW 7.4 mph 7.4 mph 34 % 0 in
20:20 66.6 °F 58.8 °F 29.8 in North 1 mph 2 mph 76 % 0 in
20:23 82.4 °F 51.3 °F 29.8 in SW 7.4 mph 7.4 mph 34 % 0 in
20:28 82.4 °F 51.3 °F 29.8 in SW 7.4 mph 7.4 mph 34 % 0 in
20:30 66.4 °F 58.6 °F 29.8 in NNE 1 mph 2 mph 76 % 0 in
20:33 82.4 °F 51.3 °F 29.8 in SW 7.4 mph 7.4 mph 34 % 0 in
20:38 82.4 °F 51.3 °F 29.8 in SW 7.4 mph 7.4 mph 34 % 0 in
20:40 66.4 °F 58.6 °F 29.8 in Calm   2 mph 76 % 0 in
20:43 82.4 °F 51.3 °F 29.8 in SW 7.4 mph 7.4 mph 34 % 0 in
20:48 82.4 °F 51.3 °F 29.8 in SW 7.4 mph 7.4 mph 34 % 0 in
20:50 66.2 °F 58.5 °F 29.8 in Calm   1 mph 76 % 0 in
20:53 82.4 °F 51.3 °F 29.8 in SW 7.4 mph 7.4 mph 34 % 0 in
20:58 82.4 °F 51.3 °F 29.8 in SW 7.4 mph 7.4 mph 34 % 0 in
21:00 66 °F 59 °F 29.8 in Calm   1 mph 78 % 0 in
21:03 82.4 °F 51.3 °F 29.8 in SW 7.4 mph 7.4 mph 34 % 0 in
21:08 82.4 °F 51.3 °F 29.8 in SW 7.4 mph 7.4 mph 34 % 0 in
21:10 66 °F 59 °F 29.8 in Calm   1 mph 78 % 0 in
21:13 82.4 °F 51.3 °F 29.8 in SW 7.4 mph 7.4 mph 34 % 0 in
21:18 82.4 °F 51.3 °F 29.8 in SW 7.4 mph 7.4 mph 34 % 0 in
21:20 66.2 °F 58.5 °F 29.8 in North 1 mph 2 mph 76 % 0 in
21:23 82.4 °F 51.3 °F 29.8 in SW 7.4 mph 7.4 mph 34 % 0 in
21:28 82.4 °F 51.3 °F 29.8 in SW 7.4 mph 7.4 mph 34 % 0 in
21:30 66 °F 59 °F 29.8 in Calm     78 % 0 in
21:33 82.4 °F 51.3 °F 29.8 in SW 7.4 mph 7.4 mph 34 % 0 in
21:38 82.4 °F 51.3 °F 29.8 in SW 7.4 mph 7.4 mph 34 % 0 in
21:40 65.7 °F 58.6 °F 29.8 in WNW 1 mph 2 mph 78 % 0 in
21:43 82.4 °F 51.3 °F 29.8 in SW 7.4 mph 7.4 mph 34 % 0 in
21:48 82.4 °F 51.3 °F 29.8 in SW 7.4 mph 7.4 mph 34 % 0 in
21:50 65.3 °F 58.3 °F 29.8 in West 1 mph 2 mph 78 % 0 in
21:53 82.4 °F 51.3 °F 29.8 in SW 7.4 mph 7.4 mph 34 % 0 in
21:58 82.4 °F 51.3 °F 29.8 in SW 7.4 mph 7.4 mph 34 % 0 in
22:00 65.3 °F 58.3 °F 29.8 in WSW 1 mph 1 mph 78 % 0 in
22:03 82.4 °F 51.3 °F 29.8 in SW 7.4 mph 7.4 mph 34 % 0 in
22:08 82.4 °F 51.3 °F 29.8 in SW 7.4 mph 7.4 mph 34 % 0 in
22:10 65.3 °F 58.3 °F 29.8 in WSW 1 mph 1 mph 78 % 0 in
22:13 82.4 °F 51.3 °F 29.8 in SW 7.4 mph 7.4 mph 34 % 0 in
22:18 82.4 °F 51.3 °F 29.8 in SW 7.4 mph 7.4 mph 34 % 0 in
22:20 65.5 °F 58.8 °F 29.8 in West 1 mph 2 mph 79 % 0 in
22:23 82.4 °F 51.3 °F 29.8 in SW 7.4 mph 7.4 mph 34 % 0 in
22:28 82.4 °F 51.3 °F 29.8 in SW 7.4 mph 7.4 mph 34 % 0 in
22:30 65.5 °F 59.2 °F 29.8 in Calm   1 mph 80 % 0 in
22:33 82.4 °F 51.3 °F 29.8 in SW 7.4 mph 7.4 mph 34 % 0 in
22:38 82.4 °F 51.3 °F 29.8 in SW 7.4 mph 7.4 mph 34 % 0 in
22:40 65.3 °F 58.6 °F 29.8 in Calm   1 mph 79 % 0 in
22:43 82.4 °F 51.3 °F 29.8 in SW 7.4 mph 7.4 mph 34 % 0 in
22:48 82.4 °F 51.3 °F 29.8 in SW 7.4 mph 7.4 mph 34 % 0 in
22:50 65.5 °F 59.2 °F 29.8 in Calm     80 % 0 in
22:53 82.4 °F 51.3 °F 29.8 in SW 7.4 mph 7.4 mph 34 % 0 in
22:58 82.4 °F 51.3 °F 29.8 in SW 7.4 mph 7.4 mph 34 % 0 in
23:00 65.5 °F 59.2 °F 29.8 in Calm   1 mph 80 % 0 in
23:03 82.4 °F 51.3 °F 29.8 in SW 7.4 mph 7.4 mph 34 % 0 in
23:08 82.4 °F 51.3 °F 29.8 in SW 7.4 mph 7.4 mph 34 % 0 in
23:10 65.3 °F 59 °F 29.8 in Calm     80 % 0 in
23:13 82.4 °F 51.3 °F 29.8 in SW 7.4 mph 7.4 mph 34 % 0 in
23:18 82.4 °F 51.3 °F 29.8 in SW 7.4 mph 7.4 mph 34 % 0 in
23:20 64.9 °F 58.6 °F 29.8 in Calm   1 mph 80 % 0 in
23:23 82.4 °F 51.3 °F 29.8 in SW 7.4 mph 7.4 mph 34 % 0 in
23:28 82.4 °F 51.3 °F 29.8 in SW 7.4 mph 7.4 mph 34 % 0 in
23:30 64.8 °F 58.8 °F 29.8 in SW 1 mph 3 mph 81 % 0 in
23:33 82.4 °F 51.3 °F 29.8 in SW 7.4 mph 7.4 mph 34 % 0 in
23:38 82.4 °F 51.3 °F 29.8 in SW 7.4 mph 7.4 mph 34 % 0 in
23:40 64.2 °F 57.9 °F 29.9 in SSW 1 mph 2 mph 80 % 0 in
23:43 82.4 °F 51.3 °F 29.8 in SW 7.4 mph 7.4 mph 34 % 0 in
23:48 82.4 °F 51.3 °F 29.8 in SW 7.4 mph 7.4 mph 34 % 0 in
23:50 64 °F 58.1 °F 29.9 in WSW 1 mph 1 mph 81 % 0 in
23:53 82.4 °F 51.3 °F 29.8 in SW 7.4 mph 7.4 mph 34 % 0 in
23:58 82.4 °F 51.3 °F 29.8 in SW 7.4 mph 7.4 mph 34 % 0 in
Meteo Sesrovires
Elogis d' Weather Underground - 3.75 mb

Guio original per  Jim McMurry - jmcmurry@mwt.net Adaptat per a la plantilla per  Wim van der Kuil - Leuven-Template.eu

Trobareu la nostra informacio del temps tambe a:

Weather Underground

AWEKAS